Terminal Aerodrome Forecast
Issued by NWS Quad Cities IA IL

Home | Current Version | Previous Version | Text Only | Print | Product List | Glossary On
Versions: 1 2 3 4 5 6 7 8 9 10 11 12 13 14 15 16 17 18
000
FTUS43 KDVN 241700
TAFMLI
TAF
KMLI 241727Z 2418/2518 13007KT P6SM SCT040 SCT250
     FM251000 14007KT P6SM VCTS SCT050CB BKN250
      TEMPO 2511/2514 3SM TSRA BR BKN040CB
     FM251400 17012KT 6SM -RA BR OVC040
     FM251700 18013G17KT P6SM BKN040=

USA.gov is the U.S. government's official web portal to all federal, state and local government web resources and services.